• Join FlightAware (Why Join?)
  • Login
  • US Flag 
10:26AM EST


 

Airport Tracker/Info


-or-


 

Live Flight TrackerFlight Track Log ✈ PDT4314 ✈ 25-Aug-2013 ✈ KPHL - KBGM

Flight Track Log - Related Links

Times and Time Zones

All times are in EDT time to prevent confusion due to time zone crossing. See the PDT4314 flight status page for this flight to view local times or setup timezone preferences in your user account.

Time Position Orientation Groundspeed Altitude Reporting Facility
EDT Latitude Longitude Course Direction KTS MPH feet Rate Location/Type
06:34PM 39.8833 -75.2333 303° West 134 154 500  Level Philadelphia TRACON
06:35PM 39.9167 -75.2667 323° Northwest 133 153 1,700 1,380 Climbing Philadelphia TRACON
06:36PM 39.9167 -75.3167 270° West 139 160 3,000 1,320 Climbing Philadelphia TRACON
06:37PM 40.0160 -75.3660 323° Northwest  Level FlightAware Approximate
06:37PM 39.9333 -75.3667 294° West 143 165 4,400  Level Philadelphia TRACON
06:37PM 39.9308 -75.4028 265° West 136 157 5,500 1,200 Climbing New York Center
06:38PM 40.0650 -75.4150 323° Northwest  Level FlightAware Approximate
06:38PM 39.9286 -75.4567 267° West 150 173 6,600  Level New York Center
06:39PM 40.1130 -75.4594 303° West  Level FlightAware Approximate
06:39PM 39.9436 -75.5011 294° West 158 182 7,700  Level New York Center
06:40PM 39.9833 -75.5008 360° North 164 189 8,700 660 Climbing New York Center
06:41PM 40.0344 -75.5208 343° North 174 200 9,100 180 Climbing New York Center
06:42PM 40.0842 -75.5322 350° North 195 224 9,100 420 Level New York Center
06:43PM 40.1483 -75.5422 353° North 212 244 10,000 900 Climbing New York Center
06:44PM 40.1917 -75.5558 347° North 186 214 11,000 900 Climbing New York Center
06:45PM 40.2425 -75.5839 337° Northwest 174 200 11,900 900 Climbing New York Center
06:46PM 40.2806 -75.6219 323° Northwest 169 194 12,800 720 Climbing New York Center
06:47PM 40.3169 -75.6489 331° Northwest 169 194 13,400 600 Climbing New York Center
06:48PM 40.3594 -75.6792 332° Northwest 169 194 14,000 300 Climbing New York Center
06:49PM 40.4078 -75.7236 325° Northwest 189 217 14,000  Level New York Center
06:50PM 40.4583 -75.7600 331° Northwest 202 232 14,000  Level New York Center
06:51PM 40.5156 -75.7858 341° North 212 244 14,000  Level New York Center
06:52PM 40.5642 -75.8194 332° Northwest 217 250 14,000  Level New York Center
06:53PM 40.6208 -75.8539 335° Northwest 217 250 14,000  Level New York Center
06:54PM 40.6842 -75.8831 341° North 217 250 14,000  Level New York Center
06:55PM 40.7414 -75.9147 337° Northwest 217 250 14,000  Level New York Center
06:56PM 40.7936 -75.9544 330° Northwest 217 250 14,000  Level New York Center
06:57PM 40.8464 -75.9858 336° Northwest 217 250 14,000  Level New York Center
06:58PM 40.9075 -76.0206 337° Northwest 217 250 14,000  Level New York Center
06:59PM 40.9622 -76.0553 334° Northwest 217 250 14,000  Level New York Center
07:00PM 41.0156 -76.0758 344° North 217 250 14,000  Level New York Center
07:01PM 41.0742 -76.1106 336° Northwest 217 250 14,000  Level New York Center
07:02PM 41.1311 -76.1456 335° Northwest 212 244 14,000  Level New York Center
07:03PM 41.1858 -76.1800 335° Northwest 212 244 14,000  Level New York Center
07:04PM 41.2364 -76.2117 335° Northwest 217 250 14,000  Level New York Center
07:05PM 41.2950 -76.2028 North 212 244 14,000  Level New York Center
07:06PM 41.3622 -76.1942 North 217 250 14,000  Level New York Center
07:07PM 41.4244 -76.1992 357° North 217 250 14,000 -120 Level New York Center
07:08PM 41.4850 -76.1958 North 217 250 13,800 -600 Descending New York Center
07:09PM 41.5458 -76.1842 North 222 255 12,800 -1,020 Descending New York Center
07:10PM 41.6172 -76.1761 North 245 282 11,800 -1,080 Descending New York Center
07:11PM 41.6986 -76.1689 North 262 302 10,700 -1,080 Descending New York Center
07:12PM 41.7703 -76.1522 10° North 262 302 9,700 -960 Descending New York Center
07:13PM 41.8425 -76.1192 19° North 262 302 8,800 -960 Descending New York Center
07:14PM 41.9058 -76.1019 11° North 263 303 7,800 -1,020 Descending New York Center
07:15PM 41.9756 -76.0769 15° North 258 297 6,800 -900 Descending New York Center
07:16PM 42.0433 -76.0517 15° North 253 291 6,000 -900 Descending New York Center
07:17PM 42.1017 -76.0508 North 233 268 5,100 -960 Descending New York Center
07:18PM 42.1536 -76.0519 359° North 202 232 4,100 -780 Descending New York Center
07:19PM 42.2017 -76.0447 North 182 209 3,600 -600 Descending New York Center
07:20PM 42.2381 -76.0225 24° Northeast 156 180 2,900 -600 Descending New York Center
07:21PM 42.2378 -75.9833 91° East 119 137 2,400 -540 Descending New York Center